sensor_id;sensor_type;location;lat;lon;timestamp;pressure;altitude;pressure_sealevel;temperature;humidity
46778;BME280;32536;47.128;8.746;2023-03-20T00:02:01;91845.97;;;10.73;57.45
46778;BME280;32536;47.128;8.746;2023-03-20T00:04:28;91837.19;;;10.69;58.38
46778;BME280;32536;47.128;8.746;2023-03-20T00:06:55;91846.41;;;10.64;57.88
46778;BME280;32536;47.128;8.746;2023-03-20T00:09:22;91845.28;;;10.62;58.17
46778;BME280;32536;47.128;8.746;2023-03-20T00:11:52;91851.06;;;10.60;58.58
46778;BME280;32536;47.128;8.746;2023-03-20T00:14:21;91855.66;;;10.60;58.25
46778;BME280;32536;47.128;8.746;2023-03-20T00:16:49;91861.81;;;10.56;57.71
46778;BME280;32536;47.128;8.746;2023-03-20T00:19:24;91864.53;;;10.53;57.84
46778;BME280;32536;47.128;8.746;2023-03-20T00:21:53;91864.94;;;10.51;58.13
46778;BME280;32536;47.128;8.746;2023-03-20T00:24:21;91860.31;;;10.52;58.23
46778;BME280;32536;47.128;8.746;2023-03-20T00:26:49;91861.09;;;10.52;58.06
46778;BME280;32536;47.128;8.746;2023-03-20T00:31:51;91867.59;;;10.51;58.75
46778;BME280;32536;47.128;8.746;2023-03-20T00:34:20;91862.28;;;10.48;58.65
46778;BME280;32536;47.128;8.746;2023-03-20T00:36:50;91860.03;;;10.43;59.28
46778;BME280;32536;47.128;8.746;2023-03-20T00:39:17;91864.63;;;10.42;59.02
46778;BME280;32536;47.128;8.746;2023-03-20T00:47:20;91857.63;;;10.52;58.92
46778;BME280;32536;47.128;8.746;2023-03-20T00:49:49;91858.72;;;10.58;58.27
46778;BME280;32536;47.128;8.746;2023-03-20T00:52:18;91849.47;;;10.66;58.60
46778;BME280;32536;47.128;8.746;2023-03-20T00:54:46;91853.59;;;10.75;59.12
46778;BME280;32536;47.128;8.746;2023-03-20T01:03:13;91845.88;;;10.80;58.82
46778;BME280;32536;47.128;8.746;2023-03-20T01:05:45;91847.75;;;10.83;59.19
46778;BME280;32536;47.128;8.746;2023-03-20T01:08:15;91848.88;;;10.86;58.77
46778;BME280;32536;47.128;8.746;2023-03-20T01:10:44;91844.31;;;10.83;59.12
46778;BME280;32536;47.128;8.746;2023-03-20T01:13:18;91847.81;;;10.76;58.98
46778;BME280;32536;47.128;8.746;2023-03-20T01:15:47;91845.22;;;10.69;59.52
46778;BME280;32536;47.128;8.746;2023-03-20T01:18:15;91843.00;;;10.64;59.06
46778;BME280;32536;47.128;8.746;2023-03-20T01:20:43;91839.97;;;10.58;59.52
46778;BME280;32536;47.128;8.746;2023-03-20T01:23:11;91837.28;;;10.58;60.22
46778;BME280;32536;47.128;8.746;2023-03-20T01:25:39;91834.56;;;10.62;60.28
46778;BME280;32536;47.128;8.746;2023-03-20T01:28:25;91847.91;;;10.69;59.12
46778;BME280;32536;47.128;8.746;2023-03-20T01:30:53;91836.31;;;10.79;59.82
46778;BME280;32536;47.128;8.746;2023-03-20T01:33:22;91830.88;;;10.86;59.47
46778;BME280;32536;47.128;8.746;2023-03-20T01:35:51;91834.63;;;10.93;59.64
46778;BME280;32536;47.128;8.746;2023-03-20T01:38:21;91835.72;;;10.99;59.42
46778;BME280;32536;47.128;8.746;2023-03-20T01:41:19;91840.25;;;11.02;59.00
46778;BME280;32536;47.128;8.746;2023-03-20T01:43:47;91827.97;;;11.04;59.61
46778;BME280;32536;47.128;8.746;2023-03-20T01:51:42;91838.31;;;11.06;59.46
46778;BME280;32536;47.128;8.746;2023-03-20T01:54:31;91841.78;;;11.03;59.02
46778;BME280;32536;47.128;8.746;2023-03-20T01:57:12;91830.66;;;11.04;58.57
46778;BME280;32536;47.128;8.746;2023-03-20T02:02:21;91830.22;;;11.10;58.62
46778;BME280;32536;47.128;8.746;2023-03-20T02:04:54;91834.81;;;11.09;58.71
46778;BME280;32536;47.128;8.746;2023-03-20T02:07:29;91827.16;;;11.08;59.47
46778;BME280;32536;47.128;8.746;2023-03-20T02:09:58;91825.59;;;11.10;59.00
46778;BME280;32536;47.128;8.746;2023-03-20T02:12:25;91828.28;;;11.10;58.70
46778;BME280;32536;47.128;8.746;2023-03-20T02:14:52;91824.09;;;11.09;58.62
46778;BME280;32536;47.128;8.746;2023-03-20T02:17:18;91829.50;;;11.05;58.88
46778;BME280;32536;47.128;8.746;2023-03-20T02:20:09;91833.03;;;10.99;57.38
46778;BME280;32536;47.128;8.746;2023-03-20T02:26:29;91831.91;;;10.96;57.87
46778;BME280;32536;47.128;8.746;2023-03-20T02:38:47;91838.38;;;10.64;57.80
46778;BME280;32536;47.128;8.746;2023-03-20T02:41:27;91846.09;;;10.59;58.21
46778;BME280;32536;47.128;8.746;2023-03-20T02:49:35;91845.22;;;10.27;57.51
46778;BME280;32536;47.128;8.746;2023-03-20T02:55:18;91851.84;;;10.12;58.40
46778;BME280;32536;47.128;8.746;2023-03-20T02:57:59;91856.47;;;10.11;58.86
46778;BME280;32536;47.128;8.746;2023-03-20T03:01:27;91854.19;;;10.09;58.36
46778;BME280;32536;47.128;8.746;2023-03-20T03:04:08;91859.88;;;10.12;58.54
46778;BME280;32536;47.128;8.746;2023-03-20T03:06:41;91868.66;;;10.16;58.64
46778;BME280;32536;47.128;8.746;2023-03-20T03:09:12;91861.75;;;10.18;58.85
46778;BME280;32536;47.128;8.746;2023-03-20T03:12:15;91859.09;;;10.18;58.11
46778;BME280;32536;47.128;8.746;2023-03-20T03:14:56;91853.69;;;10.22;58.11
46778;BME280;32536;47.128;8.746;2023-03-20T03:17:29;91854.81;;;10.24;58.48
46778;BME280;32536;47.128;8.746;2023-03-20T03:20:03;91872.03;;;10.23;58.68
46778;BME280;32536;47.128;8.746;2023-03-20T03:22:35;91860.19;;;10.21;58.43
46778;BME280;32536;47.128;8.746;2023-03-20T03:25:02;91872.03;;;10.23;58.86
46778;BME280;32536;47.128;8.746;2023-03-20T03:27:37;91869.72;;;10.25;58.30
46778;BME280;32536;47.128;8.746;2023-03-20T03:30:11;91876.22;;;10.28;58.68
46778;BME280;32536;47.128;8.746;2023-03-20T03:35:54;91880.72;;;10.38;58.13
46778;BME280;32536;47.128;8.746;2023-03-20T03:38:43;91881.81;;;10.45;58.46
46778;BME280;32536;47.128;8.746;2023-03-20T03:44:11;91870.66;;;10.53;58.29
46778;BME280;32536;47.128;8.746;2023-03-20T03:46:55;91888.16;;;10.62;58.37
46778;BME280;32536;47.128;8.746;2023-03-20T03:49:31;91885.06;;;10.67;58.36
46778;BME280;32536;47.128;8.746;2023-03-20T03:52:03;91886.50;;;10.75;58.85
46778;BME280;32536;47.128;8.746;2023-03-20T03:54:43;91882.63;;;10.80;58.17
46778;BME280;32536;47.128;8.746;2023-03-20T03:57:17;91888.34;;;10.82;58.15
46778;BME280;32536;47.128;8.746;2023-03-20T03:59:50;91883.72;;;10.86;58.59
46778;BME280;32536;47.128;8.746;2023-03-20T04:02:20;91893.28;;;10.87;58.47
46778;BME280;32536;47.128;8.746;2023-03-20T04:04:50;91899.03;;;10.85;58.21
46778;BME280;32536;47.128;8.746;2023-03-20T04:07:18;91892.13;;;10.88;58.82
46778;BME280;32536;47.128;8.746;2023-03-20T04:09:46;91898.59;;;10.91;58.53
46778;BME280;32536;47.128;8.746;2023-03-20T04:12:33;91901.31;;;10.87;57.68
46778;BME280;32536;47.128;8.746;2023-03-20T04:15:05;91900.91;;;10.88;58.42
46778;BME280;32536;47.128;8.746;2023-03-20T04:17:32;91901.69;;;10.89;58.38
46778;BME280;32536;47.128;8.746;2023-03-20T04:20:00;91907.03;;;10.89;58.84
46778;BME280;32536;47.128;8.746;2023-03-20T04:22:27;91903.16;;;10.94;58.28
46778;BME280;32536;47.128;8.746;2023-03-20T04:24:53;91908.47;;;10.97;58.89
46778;BME280;32536;47.128;8.746;2023-03-20T04:27:20;91902.72;;;10.99;58.78
46778;BME280;32536;47.128;8.746;2023-03-20T04:29:47;91906.94;;;11.00;58.33
46778;BME280;32536;47.128;8.746;2023-03-20T04:32:13;91914.97;;;11.00;58.42
46778;BME280;32536;47.128;8.746;2023-03-20T04:34:40;91913.81;;;10.97;58.57
46778;BME280;32536;47.128;8.746;2023-03-20T04:37:07;91919.56;;;10.99;58.52
46778;BME280;32536;47.128;8.746;2023-03-20T04:39:34;91921.84;;;11.01;58.64
46778;BME280;32536;47.128;8.746;2023-03-20T04:42:02;91914.56;;;11.01;58.96
46778;BME280;32536;47.128;8.746;2023-03-20T04:44:31;91919.13;;;11.04;58.94
46778;BME280;32536;47.128;8.746;2023-03-20T04:46:58;91922.66;;;10.98;59.06
46778;BME280;32536;47.128;8.746;2023-03-20T04:49:26;91920.78;;;10.91;58.64
46778;BME280;32536;47.128;8.746;2023-03-20T04:51:53;91919.31;;;10.86;59.59
46778;BME280;32536;47.128;8.746;2023-03-20T04:54:21;91918.94;;;10.84;59.54
46778;BME280;32536;47.128;8.746;2023-03-20T04:56:48;91917.06;;;10.81;59.82
46778;BME280;32536;47.128;8.746;2023-03-20T04:59:14;91916.72;;;10.79;59.60
46778;BME280;32536;47.128;8.746;2023-03-20T05:01:41;91915.56;;;10.80;59.71
46778;BME280;32536;47.128;8.746;2023-03-20T05:04:08;91922.78;;;10.83;59.46
46778;BME280;32536;47.128;8.746;2023-03-20T05:06:35;91922.38;;;10.85;59.57
46778;BME280;32536;47.128;8.746;2023-03-20T05:09:02;91916.25;;;10.88;60.03
46778;BME280;32536;47.128;8.746;2023-03-20T05:11:29;91917.38;;;10.87;59.10
46778;BME280;32536;47.128;8.746;2023-03-20T05:13:56;91926.19;;;10.87;59.24
46778;BME280;32536;47.128;8.746;2023-03-20T05:16:22;91918.13;;;10.87;59.17
46778;BME280;32536;47.128;8.746;2023-03-20T05:18:49;91920.44;;;10.89;59.13
46778;BME280;32536;47.128;8.746;2023-03-20T05:21:16;91924.66;;;10.90;59.51
46778;BME280;32536;47.128;8.746;2023-03-20T05:23:43;91923.47;;;10.91;59.31
46778;BME280;32536;47.128;8.746;2023-03-20T05:26:09;91918.88;;;10.92;58.58
46778;BME280;32536;47.128;8.746;2023-03-20T05:28:36;91916.19;;;10.92;58.64
46778;BME280;32536;47.128;8.746;2023-03-20T05:31:03;91918.47;;;10.93;59.08
46778;BME280;32536;47.128;8.746;2023-03-20T05:33:30;91912.38;;;10.93;59.32
46778;BME280;32536;47.128;8.746;2023-03-20T05:35:57;91908.88;;;10.96;58.89
46778;BME280;32536;47.128;8.746;2023-03-20T05:38:23;91913.47;;;10.95;58.60
46778;BME280;32536;47.128;8.746;2023-03-20T05:40:58;91911.63;;;10.88;59.13
46778;BME280;32536;47.128;8.746;2023-03-20T05:43:26;91905.97;;;10.83;59.28
46778;BME280;32536;47.128;8.746;2023-03-20T05:45:56;91912.13;;;10.76;59.53
46778;BME280;32536;47.128;8.746;2023-03-20T05:48:23;91917.56;;;10.69;59.48
46778;BME280;32536;47.128;8.746;2023-03-20T05:50:50;91914.94;;;10.62;59.76
46778;BME280;32536;47.128;8.746;2023-03-20T05:53:17;91921.16;;;10.55;59.67
46778;BME280;32536;47.128;8.746;2023-03-20T05:55:44;91928.44;;;10.51;60.23
46778;BME280;32536;47.128;8.746;2023-03-20T05:58:11;91921.19;;;10.51;59.81
46778;BME280;32536;47.128;8.746;2023-03-20T06:00:38;91922.72;;;10.52;60.04
46778;BME280;32536;47.128;8.746;2023-03-20T06:03:05;91927.25;;;10.55;59.86
46778;BME280;32536;47.128;8.746;2023-03-20T06:05:33;91934.09;;;10.60;60.08
46778;BME280;32536;47.128;8.746;2023-03-20T06:08:01;91940.97;;;10.65;60.10
46778;BME280;32536;47.128;8.746;2023-03-20T06:10:28;91943.94;;;10.70;60.14
46778;BME280;32536;47.128;8.746;2023-03-20T06:12:56;91944.28;;;10.76;59.92
46778;BME280;32536;47.128;8.746;2023-03-20T06:15:26;91946.94;;;10.80;60.14
46778;BME280;32536;47.128;8.746;2023-03-20T06:17:54;91951.19;;;10.77;60.12
46778;BME280;32536;47.128;8.746;2023-03-20T06:20:22;91963.84;;;10.73;60.40
46778;BME280;32536;47.128;8.746;2023-03-20T06:22:49;91956.63;;;10.66;60.47
46778;BME280;32536;47.128;8.746;2023-03-20T06:25:16;91957.06;;;10.61;60.19
46778;BME280;32536;47.128;8.746;2023-03-20T06:27:45;91950.25;;;10.53;60.04
46778;BME280;32536;47.128;8.746;2023-03-20T06:30:13;91951.84;;;10.43;60.44
46778;BME280;32536;47.128;8.746;2023-03-20T06:32:41;91944.25;;;10.34;60.56
46778;BME280;32536;47.128;8.746;2023-03-20T06:35:08;91940.47;;;10.28;60.54
46778;BME280;32536;47.128;8.746;2023-03-20T06:37:35;91937.84;;;10.21;60.57
46778;BME280;32536;47.128;8.746;2023-03-20T06:40:03;91933.28;;;10.14;60.43
46778;BME280;32536;47.128;8.746;2023-03-20T06:42:31;91940.19;;;10.12;61.09
46778;BME280;32536;47.128;8.746;2023-03-20T06:44:57;91945.19;;;10.13;60.89
46778;BME280;32536;47.128;8.746;2023-03-20T06:47:24;91946.66;;;10.18;60.73
46778;BME280;32536;47.128;8.746;2023-03-20T06:49:51;91938.59;;;10.21;60.47
46778;BME280;32536;47.128;8.746;2023-03-20T06:52:19;91940.50;;;10.24;60.99
46778;BME280;32536;47.128;8.746;2023-03-20T06:54:49;91936.66;;;10.25;60.85
46778;BME280;32536;47.128;8.746;2023-03-20T06:57:16;91929.41;;;10.22;60.55
46778;BME280;32536;47.128;8.746;2023-03-20T06:59:43;91927.88;;;10.21;60.75
46778;BME280;32536;47.128;8.746;2023-03-20T07:02:10;91934.00;;;10.22;60.92
46778;BME280;32536;47.128;8.746;2023-03-20T07:04:37;91940.50;;;10.24;60.71
46778;BME280;32536;47.128;8.746;2023-03-20T07:07:04;91946.56;;;10.29;61.16
46778;BME280;32536;47.128;8.746;2023-03-20T07:09:31;91951.97;;;10.25;60.50
46778;BME280;32536;47.128;8.746;2023-03-20T07:11:57;91953.09;;;10.24;60.84
46778;BME280;32536;47.128;8.746;2023-03-20T07:14:25;91957.34;;;10.21;60.90
46778;BME280;32536;47.128;8.746;2023-03-20T07:16:51;91958.47;;;10.24;60.48
46778;BME280;32536;47.128;8.746;2023-03-20T07:19:19;91967.22;;;10.32;60.65
46778;BME280;32536;47.128;8.746;2023-03-20T07:21:46;91964.16;;;10.37;60.84
46778;BME280;32536;47.128;8.746;2023-03-20T07:24:13;91957.63;;;10.38;60.74
46778;BME280;32536;47.128;8.746;2023-03-20T07:26:40;91965.66;;;10.38;60.62
46778;BME280;32536;47.128;8.746;2023-03-20T07:29:06;91966.81;;;10.33;60.53
46778;BME280;32536;47.128;8.746;2023-03-20T07:31:33;91977.97;;;10.28;60.67
46778;BME280;32536;47.128;8.746;2023-03-20T07:34:00;91983.34;;;10.24;60.93
46778;BME280;32536;47.128;8.746;2023-03-20T07:36:26;91976.03;;;10.29;61.04
46778;BME280;32536;47.128;8.746;2023-03-20T07:38:53;91972.56;;;10.35;60.77
46778;BME280;32536;47.128;8.746;2023-03-20T07:41:20;91972.94;;;10.37;60.53
46778;BME280;32536;47.128;8.746;2023-03-20T07:43:47;91961.06;;;10.35;60.32
46778;BME280;32536;47.128;8.746;2023-03-20T07:46:13;91959.19;;;10.32;61.14
46778;BME280;32536;47.128;8.746;2023-03-20T07:48:40;91956.94;;;10.27;60.98
46778;BME280;32536;47.128;8.746;2023-03-20T07:51:07;91956.19;;;10.22;60.94
46778;BME280;32536;47.128;8.746;2023-03-20T07:53:33;91950.81;;;10.22;60.92
46778;BME280;32536;47.128;8.746;2023-03-20T07:56:00;91953.91;;;10.21;60.47
46778;BME280;32536;47.128;8.746;2023-03-20T07:58:27;91954.31;;;10.19;60.55
46778;BME280;32536;47.128;8.746;2023-03-20T08:00:56;91950.91;;;10.12;60.89
46778;BME280;32536;47.128;8.746;2023-03-20T08:03:23;91954.34;;;10.12;60.84
46778;BME280;32536;47.128;8.746;2023-03-20T08:05:50;91953.22;;;10.13;60.95
46778;BME280;32536;47.128;8.746;2023-03-20T08:08:16;91949.72;;;10.16;60.92
46778;BME280;32536;47.128;8.746;2023-03-20T08:10:43;91944.00;;;10.14;60.82
46778;BME280;32536;47.128;8.746;2023-03-20T08:13:10;91941.28;;;10.18;61.52
46778;BME280;32536;47.128;8.746;2023-03-20T08:15:36;91944.31;;;10.23;61.30
46778;BME280;32536;47.128;8.746;2023-03-20T08:18:03;91944.69;;;10.25;61.45
46778;BME280;32536;47.128;8.746;2023-03-20T08:20:30;91942.78;;;10.26;61.18
46778;BME280;32536;47.128;8.746;2023-03-20T08:22:57;91941.19;;;10.32;61.05
46778;BME280;32536;47.128;8.746;2023-03-20T08:25:24;91943.09;;;10.35;61.46
46778;BME280;32536;47.128;8.746;2023-03-20T08:27:51;91940.41;;;10.39;61.13
46778;BME280;32536;47.128;8.746;2023-03-20T08:30:17;91936.94;;;10.42;60.83
46778;BME280;32536;47.128;8.746;2023-03-20T08:32:44;91952.97;;;10.46;60.82
46778;BME280;32536;47.128;8.746;2023-03-20T08:35:11;91941.81;;;10.51;61.42
46778;BME280;32536;47.128;8.746;2023-03-20T08:37:37;91951.72;;;10.61;60.99
46778;BME280;32536;47.128;8.746;2023-03-20T08:40:04;91950.88;;;10.68;60.86
46778;BME280;32536;47.128;8.746;2023-03-20T08:42:31;91949.63;;;10.80;61.13
46778;BME280;32536;47.128;8.746;2023-03-20T08:44:58;91959.50;;;10.90;60.25
46778;BME280;32536;47.128;8.746;2023-03-20T08:47:25;91955.97;;;10.97;60.51
46778;BME280;32536;47.128;8.746;2023-03-20T08:49:52;91953.22;;;11.04;60.31
46778;BME280;32536;47.128;8.746;2023-03-20T08:52:19;91960.06;;;11.09;60.29
46778;BME280;32536;47.128;8.746;2023-03-20T08:54:45;91945.84;;;11.12;60.58
46778;BME280;32536;47.128;8.746;2023-03-20T08:57:12;91949.25;;;11.16;59.88
46778;BME280;32536;47.128;8.746;2023-03-20T08:59:39;91962.63;;;11.19;60.02
46778;BME280;32536;47.128;8.746;2023-03-20T09:02:06;91962.97;;;11.21;59.89
46778;BME280;32536;47.128;8.746;2023-03-20T09:04:35;91976.47;;;11.14;60.24
46778;BME280;32536;47.128;8.746;2023-03-20T09:07:02;91969.66;;;11.06;59.86
46778;BME280;32536;47.128;8.746;2023-03-20T09:09:29;91966.66;;;11.00;60.26
46778;BME280;32536;47.128;8.746;2023-03-20T09:11:57;91973.97;;;10.96;60.14
46778;BME280;32536;47.128;8.746;2023-03-20T09:14:25;91985.06;;;10.95;60.24
46778;BME280;32536;47.128;8.746;2023-03-20T09:16:53;91976.31;;;10.91;60.00
46778;BME280;32536;47.128;8.746;2023-03-20T09:19:19;91977.09;;;10.87;60.34
46778;BME280;32536;47.128;8.746;2023-03-20T09:21:46;91985.19;;;10.84;60.06
46778;BME280;32536;47.128;8.746;2023-03-20T09:24:13;91981.75;;;10.83;60.38
46778;BME280;32536;47.128;8.746;2023-03-20T09:26:41;91989.06;;;10.79;60.59
46778;BME280;32536;47.128;8.746;2023-03-20T09:29:07;91980.31;;;10.71;60.12
46778;BME280;32536;47.128;8.746;2023-03-20T09:31:34;91983.75;;;10.72;61.00
46778;BME280;32536;47.128;8.746;2023-03-20T09:34:01;91986.44;;;10.72;60.10
46778;BME280;32536;47.128;8.746;2023-03-20T09:36:28;91989.88;;;10.72;60.40
46778;BME280;32536;47.128;8.746;2023-03-20T09:38:55;91981.41;;;10.78;60.35
46778;BME280;32536;47.128;8.746;2023-03-20T09:41:23;91987.47;;;10.85;60.84
46778;BME280;32536;47.128;8.746;2023-03-20T09:52:47;91995.84;;;10.91;60.13
46778;BME280;32536;47.128;8.746;2023-03-20T09:55:38;91991.22;;;10.95;60.21
46778;BME280;32536;47.128;8.746;2023-03-20T09:58:14;91995.03;;;10.98;60.13
46778;BME280;32536;47.128;8.746;2023-03-20T10:00:51;91989.66;;;10.98;59.87
46778;BME280;32536;47.128;8.746;2023-03-20T10:03:27;91987.41;;;10.93;60.12
46778;BME280;32536;47.128;8.746;2023-03-20T10:06:00;91985.94;;;10.84;60.23
46778;BME280;32536;47.128;8.746;2023-03-20T10:08:34;91988.25;;;10.82;60.01
46778;BME280;32536;47.128;8.746;2023-03-20T10:11:29;91984.41;;;10.87;59.96
46778;BME280;32536;47.128;8.746;2023-03-20T10:20:34;91984.88;;;11.16;58.79
46778;BME280;32536;47.128;8.746;2023-03-20T10:23:30;91978.66;;;11.27;59.77
46778;BME280;32536;47.128;8.746;2023-03-20T10:26:05;91984.28;;;11.36;59.72
46778;BME280;32536;47.128;8.746;2023-03-20T10:28:59;91971.25;;;11.38;59.32
46778;BME280;32536;47.128;8.746;2023-03-20T10:42:55;91965.88;;;11.38;59.70
46778;BME280;32536;47.128;8.746;2023-03-20T10:45:51;91960.56;;;11.34;59.72
46778;BME280;32536;47.128;8.746;2023-03-20T10:48:29;91962.13;;;11.32;60.37
46778;BME280;32536;47.128;8.746;2023-03-20T10:51:02;91964.78;;;11.32;60.39
46778;BME280;32536;47.128;8.746;2023-03-20T10:53:54;91967.78;;;11.37;57.82
46778;BME280;32536;47.128;8.746;2023-03-20T10:56:41;91973.41;;;11.50;60.07
46778;BME280;32536;47.128;8.746;2023-03-20T10:59:31;91969.19;;;11.49;60.03
46778;BME280;32536;47.128;8.746;2023-03-20T11:02:11;91974.63;;;11.42;60.26
46778;BME280;32536;47.128;8.746;2023-03-20T11:04:39;91973.50;;;11.40;60.84
46778;BME280;32536;47.128;8.746;2023-03-20T11:07:22;91962.00;;;11.43;60.20
46778;BME280;32536;47.128;8.746;2023-03-20T11:15:30;91951.34;;;11.66;58.50
46778;BME280;32536;47.128;8.746;2023-03-20T11:18:03;91951.25;;;11.74;59.83
46778;BME280;32536;47.128;8.746;2023-03-20T11:20:48;91954.59;;;11.81;59.94
46778;BME280;32536;47.128;8.746;2023-03-20T11:23:23;91954.13;;;11.90;59.57
46778;BME280;32536;47.128;8.746;2023-03-20T11:28:36;91958.56;;;12.04;59.19
46778;BME280;32536;47.128;8.746;2023-03-20T11:31:17;91961.19;;;12.08;58.46
46778;BME280;32536;47.128;8.746;2023-03-20T11:34:20;91960.72;;;12.13;58.18
46778;BME280;32536;47.128;8.746;2023-03-20T11:36:59;91958.34;;;12.19;58.30
46778;BME280;32536;47.128;8.746;2023-03-20T11:39:30;91967.47;;;12.25;59.07
46778;BME280;32536;47.128;8.746;2023-03-20T11:42:00;91968.22;;;12.25;59.56
46778;BME280;32536;47.128;8.746;2023-03-20T11:44:29;91972.44;;;12.26;59.22
46778;BME280;32536;47.128;8.746;2023-03-20T11:47:02;91975.16;;;12.23;58.53
46778;BME280;32536;47.128;8.746;2023-03-20T11:49:44;91968.94;;;12.29;59.69
46778;BME280;32536;47.128;8.746;2023-03-20T11:52:16;91970.00;;;12.36;59.05
46778;BME280;32536;47.128;8.746;2023-03-20T11:54:52;91974.16;;;12.40;58.36
46778;BME280;32536;47.128;8.746;2023-03-20T11:57:30;91964.06;;;12.48;58.18
46778;BME280;32536;47.128;8.746;2023-03-20T12:02:48;91959.38;;;12.52;59.68
46778;BME280;32536;47.128;8.746;2023-03-20T12:05:34;91967.50;;;12.48;57.65
46778;BME280;32536;47.128;8.746;2023-03-20T12:08:09;91963.63;;;12.49;57.42
46778;BME280;32536;47.128;8.746;2023-03-20T12:10:42;91970.13;;;12.52;58.57
46778;BME280;32536;47.128;8.746;2023-03-20T12:13:24;91968.97;;;12.53;57.96
46778;BME280;32536;47.128;8.746;2023-03-20T12:15:59;91968.91;;;12.57;58.64
46778;BME280;32536;47.128;8.746;2023-03-20T12:18:32;91970.00;;;12.59;58.78
46778;BME280;32536;47.128;8.746;2023-03-20T12:24:08;91970.06;;;12.56;58.51
46778;BME280;32536;47.128;8.746;2023-03-20T12:29:42;91973.88;;;12.58;58.50
46778;BME280;32536;47.128;8.746;2023-03-20T12:32:25;91970.44;;;12.58;58.70
46778;BME280;32536;47.128;8.746;2023-03-20T12:35:16;91964.34;;;12.54;58.48
46778;BME280;32536;47.128;8.746;2023-03-20T12:37:57;91971.75;;;12.46;58.79
46778;BME280;32536;47.128;8.746;2023-03-20T12:40:38;91968.38;;;12.42;58.49
46778;BME280;32536;47.128;8.746;2023-03-20T12:43:34;91963.75;;;12.42;57.73
46778;BME280;32536;47.128;8.746;2023-03-20T12:49:20;91960.16;;;12.53;59.27
46778;BME280;32536;47.128;8.746;2023-03-20T12:55:15;91966.22;;;12.57;57.94
46778;BME280;32536;47.128;8.746;2023-03-20T12:58:10;91961.66;;;12.54;58.90
46778;BME280;32536;47.128;8.746;2023-03-20T13:01:05;91957.50;;;12.49;58.16
46778;BME280;32536;47.128;8.746;2023-03-20T13:06:53;91959.72;;;12.54;57.29
46778;BME280;32536;47.128;8.746;2023-03-20T13:09:42;91951.19;;;12.59;55.54
46778;BME280;32536;47.128;8.746;2023-03-20T13:12:58;91950.72;;;12.64;57.07
46778;BME280;32536;47.128;8.746;2023-03-20T13:16:02;91946.88;;;12.65;58.92
46778;BME280;32536;47.128;8.746;2023-03-20T13:18:55;91946.25;;;12.58;57.78
46778;BME280;32536;47.128;8.746;2023-03-20T13:21:31;91940.91;;;12.54;57.52
46778;BME280;32536;47.128;8.746;2023-03-20T13:26:51;91949.41;;;12.53;56.21
46778;BME280;32536;47.128;8.746;2023-03-20T13:38:21;91935.91;;;12.56;56.05
46778;BME280;32536;47.128;8.746;2023-03-20T13:40:58;91934.81;;;12.54;55.04
46778;BME280;32536;47.128;8.746;2023-03-20T13:43:47;91931.34;;;12.53;53.26
46778;BME280;32536;47.128;8.746;2023-03-20T13:46:19;91933.22;;;12.56;57.25
46778;BME280;32536;47.128;8.746;2023-03-20T13:49:01;91922.34;;;12.63;57.82
46778;BME280;32536;47.128;8.746;2023-03-20T13:52:03;91911.81;;;12.73;56.99
46778;BME280;32536;47.128;8.746;2023-03-20T13:55:02;91914.72;;;12.82;54.44
46778;BME280;32536;47.128;8.746;2023-03-20T14:01:06;91910.75;;;13.10;57.98
46778;BME280;32536;47.128;8.746;2023-03-20T14:03:48;91904.69;;;13.26;58.36
46778;BME280;32536;47.128;8.746;2023-03-20T14:11:59;91895.56;;;13.44;57.49
46778;BME280;32536;47.128;8.746;2023-03-20T14:14:38;91894.97;;;13.53;57.75
46778;BME280;32536;47.128;8.746;2023-03-20T14:17:18;91888.28;;;13.61;57.76
46778;BME280;32536;47.128;8.746;2023-03-20T14:19:48;91884.25;;;13.69;58.21
46778;BME280;32536;47.128;8.746;2023-03-20T14:22:22;91882.25;;;13.73;57.35
46778;BME280;32536;47.128;8.746;2023-03-20T14:24:58;91882.56;;;13.75;57.71
46778;BME280;32536;47.128;8.746;2023-03-20T14:27:34;91883.41;;;13.72;57.48
46778;BME280;32536;47.128;8.746;2023-03-20T14:35:45;91880.03;;;13.68;56.31
46778;BME280;32536;47.128;8.746;2023-03-20T14:41:32;91866.09;;;13.73;58.42
46778;BME280;32536;47.128;8.746;2023-03-20T14:44:23;91854.97;;;13.71;53.76
46778;BME280;32536;47.128;8.746;2023-03-20T14:47:33;91859.69;;;13.67;53.20
46778;BME280;32536;47.128;8.746;2023-03-20T14:50:22;91853.22;;;13.65;49.13
46778;BME280;32536;47.128;8.746;2023-03-20T14:53:15;91848.56;;;13.65;49.37
46778;BME280;32536;47.128;8.746;2023-03-20T15:04:06;91844.13;;;13.75;56.75
46778;BME280;32536;47.128;8.746;2023-03-20T15:07:02;91846.75;;;13.79;56.20
46778;BME280;32536;47.128;8.746;2023-03-20T15:09:42;91847.09;;;13.81;57.14
46778;BME280;32536;47.128;8.746;2023-03-20T15:12:13;91840.50;;;13.82;57.44
46778;BME280;32536;47.128;8.746;2023-03-20T15:14:44;91831.94;;;13.87;55.42
46778;BME280;32536;47.128;8.746;2023-03-20T15:17:21;91836.47;;;13.90;56.50
46778;BME280;32536;47.128;8.746;2023-03-20T15:22:56;91832.94;;;13.76;56.67
46778;BME280;32536;47.128;8.746;2023-03-20T15:25:30;91831.50;;;13.72;56.97
46778;BME280;32536;47.128;8.746;2023-03-20T15:27:57;91833.78;;;13.73;57.66
46778;BME280;32536;47.128;8.746;2023-03-20T15:30:24;91832.63;;;13.74;57.85
46778;BME280;32536;47.128;8.746;2023-03-20T15:32:53;91837.16;;;13.77;57.73
46778;BME280;32536;47.128;8.746;2023-03-20T15:35:22;91832.94;;;13.76;57.60
46778;BME280;32536;47.128;8.746;2023-03-20T15:37:51;91837.91;;;13.78;57.99
46778;BME280;32536;47.128;8.746;2023-03-20T15:40:25;91837.56;;;13.76;57.11
46778;BME280;32536;47.128;8.746;2023-03-20T15:42:59;91831.50;;;13.72;57.49
46778;BME280;32536;47.128;8.746;2023-03-20T15:45:50;91840.50;;;13.65;57.96
46778;BME280;32536;47.128;8.746;2023-03-20T15:48:22;91835.94;;;13.62;57.78
46778;BME280;32536;47.128;8.746;2023-03-20T15:50:54;91836.88;;;13.55;57.83
46778;BME280;32536;47.128;8.746;2023-03-20T15:53:30;91836.94;;;13.52;57.02
46778;BME280;32536;47.128;8.746;2023-03-20T15:56:11;91838.63;;;13.45;57.48